Time;durP1;ratioP1;P1;durP2;ratioP2;P2;SDS_P1;SDS_P2;PMS_P1;PMS_P2;Temp;Humidity;BMP_temperature;BMP_pressure;BME280_temperature;BME280_humidity;BME280_pressure;Samples;Min_cycle;Max_cycle;Signal;HPM_P1;HPM_P2
2021/12/02 00:00:31;;;;;;;;;;;4.80;38.50;;;;;;4114025;28;20516;-50
2021/12/02 00:02:33;;;;;;;;;;;4.70;38.60;;;;;;4113484;28;20003;-49
2021/12/02 00:04:37;;;;;;;;;;;4.70;39.30;;;;;;4096745;28;19946;-48
2021/12/02 00:06:39;;;;;;;;;;;4.60;39.30;;;;;;4098010;28;19968;-49
2021/12/02 00:08:42;;;;;;;;;;;4.70;39.80;;;;;;4094194;28;19957;-47
2021/12/02 00:10:43;;;;;;;;;;;4.70;40.10;;;;;;4092853;28;20484;-52
2021/12/02 00:12:46;;;;;;;;;;;4.60;40.30;;;;;;4107785;28;19946;-49
2021/12/02 00:14:49;;;;;;;;;;;4.60;41.60;;;;;;4092301;28;19959;-47
2021/12/02 00:21:23;;;;;;;;;;;4.60;42.60;;;;;;4113127;28;20010;-50
2021/12/02 00:23:28;;;;;;;;;;;4.60;43.00;;;;;;4097096;28;20015;-50
2021/12/02 00:25:29;;;;;;;;;;;4.60;43.10;;;;;;4095916;28;19948;-48
2021/12/02 00:27:33;;;;;;;;;;;4.50;44.00;;;;;;4109001;28;19964;-49
2021/12/02 00:29:36;;;;;;;;;;;4.50;43.70;;;;;;4094868;28;20003;-49
2021/12/02 00:31:38;;;;;;;;;;;4.50;45.70;;;;;;4110966;28;20459;-47
2021/12/02 00:33:42;;;;;;;;;;;4.60;45.80;;;;;;4111175;28;20408;-47
2021/12/02 00:35:44;;;;;;;;;;;4.60;45.90;;;;;;4092776;28;19954;-49
2021/12/02 00:37:46;;;;;;;;;;;4.60;44.80;;;;;;4094813;28;19972;-48
2021/12/02 00:39:50;;;;;;;;;;;4.50;44.20;;;;;;4110877;28;19949;-51
2021/12/02 00:41:52;;;;;;;;;;;4.50;44.60;;;;;;4109925;28;20363;-50
2021/12/02 00:43:55;;;;;;;;;;;4.60;46.50;;;;;;4092908;28;19948;-50
2021/12/02 00:45:57;;;;;;;;;;;4.70;46.40;;;;;;4093276;28;19946;-49
2021/12/02 00:48:00;;;;;;;;;;;4.70;45.50;;;;;;4109481;28;19968;-49
2021/12/02 00:50:02;;;;;;;;;;;4.60;45.20;;;;;;4112584;28;19941;-48
2021/12/02 00:52:04;;;;;;;;;;;4.60;46.50;;;;;;4110032;28;19950;-50
2021/12/02 00:54:07;;;;;;;;;;;4.70;46.70;;;;;;4112181;28;19968;-50
2021/12/02 00:56:10;;;;;;;;;;;4.60;46.90;;;;;;4109699;28;19956;-49
2021/12/02 00:58:18;;;;;;;;;;;4.70;47.00;;;;;;4106492;28;20432;-48
2021/12/02 01:00:20;;;;;;;;;;;4.70;47.70;;;;;;4094351;28;19992;-49
2021/12/02 01:02:23;;;;;;;;;;;4.80;47.70;;;;;;4092693;28;20018;-50
2021/12/02 01:04:26;;;;;;;;;;;4.80;47.30;;;;;;4113288;28;20007;-51
2021/12/02 01:06:27;;;;;;;;;;;4.80;47.40;;;;;;4112382;28;20009;-48
2021/12/02 01:08:30;;;;;;;;;;;4.80;47.70;;;;;;4091508;28;19958;-49
2021/12/02 01:10:31;;;;;;;;;;;4.80;48.50;;;;;;4093544;28;19950;-49
2021/12/02 01:12:34;;;;;;;;;;;4.80;46.50;;;;;;4094024;28;19999;-48
2021/12/02 01:14:36;;;;;;;;;;;4.80;46.00;;;;;;4093830;28;19965;-48
2021/12/02 01:16:38;;;;;;;;;;;4.80;46.20;;;;;;4111309;28;19965;-50
2021/12/02 01:18:41;;;;;;;;;;;4.80;46.50;;;;;;4094769;28;20039;-47
2021/12/02 01:20:45;;;;;;;;;;;4.80;46.20;;;;;;4113814;28;19947;-47
2021/12/02 01:22:47;;;;;;;;;;;4.80;46.00;;;;;;4108669;28;19943;-48
2021/12/02 01:24:50;;;;;;;;;;;4.80;46.20;;;;;;4108113;28;19949;-49
2021/12/02 01:26:53;;;;;;;;;;;4.80;46.00;;;;;;4091115;28;19963;-50
2021/12/02 01:28:55;;;;;;;;;;;4.80;45.30;;;;;;4093533;28;20387;-50
2021/12/02 01:30:57;;;;;;;;;;;4.90;45.80;;;;;;4092503;28;19951;-48
2021/12/02 01:33:01;;;;;;;;;;;4.90;45.40;;;;;;4107195;28;19959;-48
2021/12/02 01:35:04;;;;;;;;;;;4.80;44.90;;;;;;4110934;28;20338;-49
2021/12/02 01:37:09;;;;;;;;;;;4.80;45.30;;;;;;4106297;28;20017;-50
2021/12/02 01:39:11;;;;;;;;;;;4.80;45.20;;;;;;4106962;28;19962;-49
2021/12/02 01:41:13;;;;;;;;;;;4.90;44.60;;;;;;4088976;28;19950;-49
2021/12/02 01:43:16;;;;;;;;;;;4.80;43.70;;;;;;4110745;28;20015;-48
2021/12/02 01:45:26;;;;;;;;;;;4.80;43.60;;;;;;4109473;28;19943;-49
2021/12/02 01:47:32;;;;;;;;;;;4.80;42.70;;;;;;4088883;28;19973;-50
2021/12/02 01:49:39;;;;;;;;;;;4.80;42.90;;;;;;4092796;28;19953;-51
2021/12/02 01:51:48;;;;;;;;;;;4.90;43.50;;;;;;4092488;28;20053;-49
2021/12/02 01:53:51;;;;;;;;;;;4.90;41.90;;;;;;4089415;28;20929;-50
2021/12/02 01:55:53;;;;;;;;;;;4.90;39.60;;;;;;4108117;28;19988;-49
2021/12/02 01:58:00;;;;;;;;;;;4.90;37.70;;;;;;4093640;28;20064;-49
2021/12/02 02:00:14;;;;;;;;;;;5.00;37.40;;;;;;4091233;28;20572;-48
2021/12/02 02:02:18;;;;;;;;;;;5.00;37.00;;;;;;4090380;28;20746;-51
2021/12/02 02:04:21;;;;;;;;;;;5.00;35.70;;;;;;4092757;28;20054;-52
2021/12/02 02:06:28;;;;;;;;;;;4.90;35.60;;;;;;4095740;28;20345;-47
2021/12/02 02:08:30;;;;;;;;;;;4.90;35.60;;;;;;4090653;28;19943;-51
2021/12/02 02:10:34;;;;;;;;;;;4.90;35.60;;;;;;4091499;28;19999;-49
2021/12/02 02:12:36;;;;;;;;;;;4.90;35.30;;;;;;4109077;28;20000;-48
2021/12/02 02:14:38;;;;;;;;;;;4.90;35.80;;;;;;4108108;28;19965;-49
2021/12/02 02:16:41;;;;;;;;;;;5.00;35.60;;;;;;4094776;28;20359;-50
2021/12/02 02:18:43;;;;;;;;;;;5.00;35.10;;;;;;4107950;28;20052;-50
2021/12/02 02:20:55;;;;;;;;;;;5.00;35.40;;;;;;4108102;28;19944;-47
2021/12/02 02:22:57;;;;;;;;;;;5.00;34.10;;;;;;4092393;28;19951;-50
2021/12/02 02:25:00;;;;;;;;;;;5.00;34.50;;;;;;4108230;28;20049;-48
2021/12/02 02:27:02;;;;;;;;;;;5.00;34.50;;;;;;4107569;28;19967;-51
2021/12/02 02:29:06;;;;;;;;;;;5.00;34.40;;;;;;4109005;28;19951;-49
2021/12/02 02:31:08;;;;;;;;;;;5.00;32.70;;;;;;4108068;28;19946;-49
2021/12/02 02:33:11;;;;;;;;;;;5.00;29.20;;;;;;4105951;28;20040;-50
2021/12/02 02:35:13;;;;;;;;;;;5.00;28.60;;;;;;4110882;28;19961;-47
2021/12/02 02:37:15;;;;;;;;;;;5.00;28.80;;;;;;4108657;28;19972;-48
2021/12/02 02:39:19;;;;;;;;;;;5.00;29.70;;;;;;4109919;28;20373;-51
2021/12/02 02:41:25;;;;;;;;;;;4.90;28.90;;;;;;4107842;28;19977;-50
2021/12/02 02:43:27;;;;;;;;;;;5.00;28.90;;;;;;4092248;28;20428;-48
2021/12/02 02:45:29;;;;;;;;;;;5.00;28.60;;;;;;4092410;28;20042;-49
2021/12/02 02:47:31;;;;;;;;;;;4.90;28.90;;;;;;4107168;28;19976;-49
2021/12/02 02:49:33;;;;;;;;;;;4.90;28.30;;;;;;4107705;28;20014;-49
2021/12/02 02:51:36;;;;;;;;;;;4.90;29.60;;;;;;4108264;28;19982;-49
2021/12/02 02:53:38;;;;;;;;;;;4.90;30.00;;;;;;4109749;28;19995;-52
2021/12/02 02:55:41;;;;;;;;;;;4.80;30.00;;;;;;4106785;28;19976;-49
2021/12/02 02:57:53;;;;;;;;;;;4.80;29.90;;;;;;4092822;28;19977;-47
2021/12/02 03:02:08;;;;;;;;;;;4.70;29.70;;;;;;4111488;28;19944;-48
2021/12/02 03:08:30;;;;;;;;;;;4.70;30.00;;;;;;4113325;28;20060;-50
2021/12/02 03:10:49;;;;;;;;;;;4.80;31.00;;;;;;4094523;28;19954;-50
2021/12/02 03:12:57;;;;;;;;;;;4.80;30.20;;;;;;4092488;28;19955;-50
2021/12/02 03:17:04;;;;;;;;;;;4.80;30.10;;;;;;4112745;28;19965;-49
2021/12/02 03:19:05;;;;;;;;;;;4.80;30.80;;;;;;4111891;28;19953;-50
2021/12/02 03:21:28;;;;;;;;;;;4.90;31.70;;;;;;4109003;28;20072;-48
2021/12/02 03:23:30;;;;;;;;;;;4.80;31.20;;;;;;4093804;28;20514;-49
2021/12/02 03:25:32;;;;;;;;;;;4.90;32.20;;;;;;4110758;28;19989;-48
2021/12/02 03:27:34;;;;;;;;;;;4.80;31.80;;;;;;4108626;28;19962;-48
2021/12/02 03:29:36;;;;;;;;;;;4.90;33.30;;;;;;4110414;28;20372;-49
2021/12/02 03:31:38;;;;;;;;;;;4.90;33.30;;;;;;4109633;28;19944;-47
2021/12/02 03:33:41;;;;;;;;;;;4.90;33.10;;;;;;4110197;28;19944;-49
2021/12/02 03:35:43;;;;;;;;;;;4.90;33.80;;;;;;4095790;28;19986;-51
2021/12/02 03:38:02;;;;;;;;;;;4.90;33.00;;;;;;4108936;28;20525;-53
2021/12/02 03:40:06;;;;;;;;;;;5.00;31.90;;;;;;4091317;28;19987;-51
2021/12/02 03:42:11;;;;;;;;;;;5.00;31.90;;;;;;4113423;28;19948;-48
2021/12/02 03:44:12;;;;;;;;;;;5.00;30.30;;;;;;4107167;28;19982;-51
2021/12/02 03:46:15;;;;;;;;;;;5.00;29.80;;;;;;4110525;28;19944;-49
2021/12/02 03:48:17;;;;;;;;;;;5.00;30.00;;;;;;4110753;28;20058;-48
2021/12/02 03:50:19;;;;;;;;;;;5.00;30.50;;;;;;4110422;28;20349;-49
2021/12/02 03:52:21;;;;;;;;;;;5.00;30.70;;;;;;4110104;28;19948;-50
2021/12/02 03:54:23;;;;;;;;;;;5.00;30.50;;;;;;4094703;28;20397;-51
2021/12/02 03:56:25;;;;;;;;;;;5.00;30.80;;;;;;4110785;28;19981;-50
2021/12/02 03:58:28;;;;;;;;;;;5.00;30.90;;;;;;4098515;28;19947;-49
2021/12/02 04:00:29;;;;;;;;;;;4.90;31.40;;;;;;4098350;28;19948;-48
2021/12/02 04:02:31;;;;;;;;;;;4.90;31.40;;;;;;4110989;28;19950;-50
2021/12/02 04:04:33;;;;;;;;;;;5.00;31.50;;;;;;4110560;28;19952;-48
2021/12/02 04:06:35;;;;;;;;;;;4.90;31.00;;;;;;4110382;28;19960;-49
2021/12/02 04:10:58;;;;;;;;;;;5.00;31.70;;;;;;4111540;28;20328;-49
2021/12/02 04:15:22;;;;;;;;;;;5.10;29.60;;;;;;4108774;28;20072;-50
2021/12/02 04:17:43;;;;;;;;;;;5.10;28.20;;;;;;4110545;28;19992;-48
2021/12/02 04:19:44;;;;;;;;;;;5.00;28.50;;;;;;4093572;28;19951;-48
2021/12/02 04:21:46;;;;;;;;;;;5.00;28.50;;;;;;4110530;28;20429;-50
2021/12/02 04:23:48;;;;;;;;;;;5.00;28.40;;;;;;4092019;28;20460;-54
2021/12/02 04:25:50;;;;;;;;;;;5.10;28.20;;;;;;4106622;28;19941;-50
2021/12/02 04:27:52;;;;;;;;;;;5.10;27.80;;;;;;4110180;28;19986;-50
2021/12/02 04:29:54;;;;;;;;;;;5.10;27.90;;;;;;4108713;28;19945;-47
2021/12/02 04:31:56;;;;;;;;;;;5.00;27.80;;;;;;4112153;28;19953;-48
2021/12/02 04:33:58;;;;;;;;;;;5.00;27.90;;;;;;4109722;28;20380;-48
2021/12/02 04:36:00;;;;;;;;;;;5.00;27.40;;;;;;4106492;28;20059;-48
2021/12/02 04:38:02;;;;;;;;;;;5.10;27.80;;;;;;4109094;28;19960;-48
2021/12/02 04:40:04;;;;;;;;;;;5.10;25.90;;;;;;4112890;28;19954;-49
2021/12/02 04:42:06;;;;;;;;;;;5.00;25.20;;;;;;4107418;28;20006;-47
2021/12/02 04:44:08;;;;;;;;;;;5.10;24.80;;;;;;4111568;28;19998;-49
2021/12/02 04:46:10;;;;;;;;;;;5.10;25.00;;;;;;4095569;28;19944;-50
2021/12/02 04:48:12;;;;;;;;;;;5.10;24.10;;;;;;4108707;28;19972;-50
2021/12/02 04:50:14;;;;;;;;;;;5.10;23.30;;;;;;4111659;28;20499;-48
2021/12/02 04:52:16;;;;;;;;;;;5.10;23.20;;;;;;4095647;28;19947;-50
2021/12/02 04:54:17;;;;;;;;;;;5.10;23.90;;;;;;4109025;28;19999;-50
2021/12/02 04:56:19;;;;;;;;;;;5.10;23.00;;;;;;4109196;28;19956;-48
2021/12/02 04:58:21;;;;;;;;;;;5.10;23.50;;;;;;4112167;28;19950;-49
2021/12/02 05:00:23;;;;;;;;;;;5.10;24.00;;;;;;4112269;28;19944;-50
2021/12/02 05:02:25;;;;;;;;;;;5.10;24.50;;;;;;4109159;28;20398;-52
2021/12/02 05:04:27;;;;;;;;;;;5.10;24.80;;;;;;4091109;28;19945;-52
2021/12/02 05:06:29;;;;;;;;;;;5.10;26.30;;;;;;4107999;28;19999;-48
2021/12/02 05:08:31;;;;;;;;;;;5.00;26.60;;;;;;4092842;28;20418;-52
2021/12/02 05:10:33;;;;;;;;;;;5.00;27.70;;;;;;4111979;28;19951;-48
2021/12/02 05:12:34;;;;;;;;;;;5.00;27.00;;;;;;4109009;28;19952;-48
2021/12/02 05:14:36;;;;;;;;;;;4.90;26.80;;;;;;4113250;28;20003;-54
2021/12/02 05:16:39;;;;;;;;;;;4.90;27.10;;;;;;4108093;28;20366;-50
2021/12/02 05:18:41;;;;;;;;;;;4.90;28.10;;;;;;4106756;28;20027;-48
2021/12/02 05:20:43;;;;;;;;;;;4.90;30.30;;;;;;4110594;28;19955;-48
2021/12/02 05:22:45;;;;;;;;;;;5.00;31.80;;;;;;4090079;28;19952;-49
2021/12/02 05:24:47;;;;;;;;;;;4.90;30.60;;;;;;4108132;28;20470;-48
2021/12/02 05:26:49;;;;;;;;;;;4.90;32.20;;;;;;4110448;28;19969;-48
2021/12/02 05:28:53;;;;;;;;;;;4.90;34.20;;;;;;4110649;28;20419;-48
2021/12/02 05:30:55;;;;;;;;;;;4.90;35.00;;;;;;4109320;28;19947;-48
2021/12/02 05:32:57;;;;;;;;;;;4.90;35.70;;;;;;4110054;28;19941;-48
2021/12/02 05:34:59;;;;;;;;;;;4.90;36.30;;;;;;4110755;28;20368;-50
2021/12/02 05:37:01;;;;;;;;;;;4.90;35.90;;;;;;4094312;28;19997;-47
2021/12/02 05:39:03;;;;;;;;;;;4.90;36.60;;;;;;4106852;28;19953;-52
2021/12/02 05:41:05;;;;;;;;;;;4.80;38.50;;;;;;4102995;28;20031;-47
2021/12/02 05:43:07;;;;;;;;;;;4.80;41.10;;;;;;4107949;28;19948;-48
2021/12/02 05:45:09;;;;;;;;;;;4.80;41.90;;;;;;4109241;28;20401;-51
2021/12/02 05:47:11;;;;;;;;;;;4.90;43.20;;;;;;4091681;28;19964;-49
2021/12/02 05:49:13;;;;;;;;;;;4.90;43.30;;;;;;4109247;28;19990;-49
2021/12/02 05:51:14;;;;;;;;;;;4.80;42.50;;;;;;4113603;28;20549;-48
2021/12/02 05:53:17;;;;;;;;;;;4.80;42.60;;;;;;4109837;28;19953;-49
2021/12/02 05:55:19;;;;;;;;;;;4.80;41.70;;;;;;4107755;28;19942;-48
2021/12/02 05:57:21;;;;;;;;;;;4.80;41.80;;;;;;4108851;28;19967;-51
2021/12/02 05:59:24;;;;;;;;;;;4.80;41.70;;;;;;4092574;28;19955;-51
2021/12/02 06:01:26;;;;;;;;;;;4.80;41.20;;;;;;4091718;28;20471;-49
2021/12/02 06:03:28;;;;;;;;;;;4.80;41.40;;;;;;4093589;28;20526;-49
2021/12/02 06:05:31;;;;;;;;;;;4.80;40.60;;;;;;4094638;28;20079;-48
2021/12/02 06:07:33;;;;;;;;;;;4.70;40.60;;;;;;4111222;28;19999;-49
2021/12/02 06:09:35;;;;;;;;;;;4.70;40.90;;;;;;4105081;28;19945;-48
2021/12/02 06:11:37;;;;;;;;;;;4.80;41.60;;;;;;4108723;28;20261;-49
2021/12/02 06:13:38;;;;;;;;;;;4.80;41.10;;;;;;4111758;28;20022;-48
2021/12/02 06:15:40;;;;;;;;;;;4.70;40.20;;;;;;4106533;28;20389;-47
2021/12/02 06:17:43;;;;;;;;;;;4.70;40.60;;;;;;4092765;28;19972;-53
2021/12/02 06:19:45;;;;;;;;;;;4.70;41.00;;;;;;4096070;28;19944;-49
2021/12/02 06:21:48;;;;;;;;;;;4.70;41.10;;;;;;4091935;28;19952;-48
2021/12/02 06:23:50;;;;;;;;;;;4.70;41.50;;;;;;4104861;28;19959;-47
2021/12/02 06:25:52;;;;;;;;;;;4.70;41.60;;;;;;4092988;28;20543;-50
2021/12/02 06:27:55;;;;;;;;;;;4.70;42.20;;;;;;4090455;28;20385;-51
2021/12/02 06:29:56;;;;;;;;;;;4.60;41.60;;;;;;4089641;28;20643;-49
2021/12/02 06:31:58;;;;;;;;;;;4.70;41.70;;;;;;4109482;28;19991;-49
2021/12/02 06:34:01;;;;;;;;;;;4.70;40.20;;;;;;4094673;28;19990;-52
2021/12/02 06:36:03;;;;;;;;;;;4.70;41.60;;;;;;4094537;28;19960;-49
2021/12/02 06:38:11;;;;;;;;;;;4.70;41.60;;;;;;4109374;28;19964;-51
2021/12/02 06:40:13;;;;;;;;;;;4.60;41.40;;;;;;4113072;28;19958;-51
2021/12/02 06:42:15;;;;;;;;;;;4.70;41.60;;;;;;4092606;28;20320;-53
2021/12/02 06:44:16;;;;;;;;;;;4.60;41.10;;;;;;4108208;28;19992;-50
2021/12/02 06:46:18;;;;;;;;;;;4.60;40.50;;;;;;4098484;28;20332;-48
2021/12/02 06:48:20;;;;;;;;;;;4.60;42.00;;;;;;4095676;28;20020;-51
2021/12/02 06:50:22;;;;;;;;;;;4.60;41.60;;;;;;4095233;28;19948;-51
2021/12/02 06:52:27;;;;;;;;;;;4.60;42.90;;;;;;4095809;28;19969;-48
2021/12/02 06:54:28;;;;;;;;;;;4.60;41.70;;;;;;4095619;28;19943;-50
2021/12/02 06:56:30;;;;;;;;;;;4.60;42.10;;;;;;4098857;28;20011;-50
2021/12/02 06:58:33;;;;;;;;;;;4.60;41.90;;;;;;4093741;28;19948;-48
2021/12/02 07:00:35;;;;;;;;;;;4.60;41.80;;;;;;4109939;28;19991;-53
2021/12/02 07:02:37;;;;;;;;;;;4.60;41.70;;;;;;4094802;28;20382;-49
2021/12/02 07:04:39;;;;;;;;;;;4.60;41.40;;;;;;4111805;28;19978;-49
2021/12/02 07:06:43;;;;;;;;;;;4.60;40.00;;;;;;4110389;28;19967;-47
2021/12/02 07:08:45;;;;;;;;;;;4.60;40.00;;;;;;4092435;28;19978;-50
2021/12/02 07:10:47;;;;;;;;;;;4.60;39.70;;;;;;4098178;28;19948;-51
2021/12/02 07:12:52;;;;;;;;;;;4.60;41.40;;;;;;4109109;28;19944;-49
2021/12/02 07:14:53;;;;;;;;;;;4.60;40.10;;;;;;4112488;28;19952;-54
2021/12/02 07:16:57;;;;;;;;;;;4.50;41.40;;;;;;4109875;28;20570;-49
2021/12/02 07:19:02;;;;;;;;;;;4.60;42.30;;;;;;4108838;28;19951;-53
2021/12/02 07:21:04;;;;;;;;;;;4.50;41.80;;;;;;4112712;28;20601;-48
2021/12/02 07:23:06;;;;;;;;;;;4.60;42.00;;;;;;4109580;28;20441;-50
2021/12/02 07:25:08;;;;;;;;;;;4.50;40.60;;;;;;4101993;28;20439;-51
2021/12/02 07:27:10;;;;;;;;;;;4.50;40.20;;;;;;4109047;28;20011;-51
2021/12/02 07:29:12;;;;;;;;;;;4.50;40.90;;;;;;4094586;28;20158;-51
2021/12/02 07:31:14;;;;;;;;;;;4.60;39.50;;;;;;4112520;28;20404;-48
2021/12/02 07:33:18;;;;;;;;;;;4.50;39.70;;;;;;4112920;28;19945;-49
2021/12/02 07:35:21;;;;;;;;;;;4.50;39.30;;;;;;4113209;28;19951;-50
2021/12/02 07:37:23;;;;;;;;;;;4.50;39.40;;;;;;4113395;28;20056;-51
2021/12/02 07:39:25;;;;;;;;;;;4.50;39.60;;;;;;4098300;28;20420;-48
2021/12/02 07:41:27;;;;;;;;;;;4.50;41.00;;;;;;4096626;28;19951;-49
2021/12/02 07:43:31;;;;;;;;;;;4.60;40.90;;;;;;4094372;28;20000;-50
2021/12/02 07:45:35;;;;;;;;;;;4.50;39.00;;;;;;4111185;28;19951;-50
2021/12/02 07:47:39;;;;;;;;;;;4.50;39.00;;;;;;4113503;28;20423;-50
2021/12/02 07:49:41;;;;;;;;;;;4.50;39.40;;;;;;4099659;28;19965;-52
2021/12/02 07:51:44;;;;;;;;;;;4.50;39.10;;;;;;4097946;28;19949;-51
2021/12/02 07:53:47;;;;;;;;;;;4.50;39.70;;;;;;4106733;28;19944;-48
2021/12/02 07:55:50;;;;;;;;;;;4.50;39.40;;;;;;4111388;28;19955;-50
2021/12/02 07:57:52;;;;;;;;;;;4.50;39.30;;;;;;4112006;28;19968;-48
2021/12/02 07:59:54;;;;;;;;;;;4.50;39.20;;;;;;4110484;28;19951;-51
2021/12/02 08:02:00;;;;;;;;;;;4.60;38.70;;;;;;4108303;28;19941;-49
2021/12/02 08:04:02;;;;;;;;;;;4.50;38.80;;;;;;4112452;28;19953;-49
2021/12/02 08:06:04;;;;;;;;;;;4.50;38.80;;;;;;4110157;28;19950;-49
2021/12/02 08:08:06;;;;;;;;;;;4.50;38.30;;;;;;4110406;28;20074;-52
2021/12/02 08:10:09;;;;;;;;;;;4.50;38.50;;;;;;4110640;28;19975;-53
2021/12/02 08:12:11;;;;;;;;;;;4.50;39.80;;;;;;4094783;28;19981;-49
2021/12/02 08:14:16;;;;;;;;;;;4.50;38.40;;;;;;4095627;28;20063;-48
2021/12/02 08:16:20;;;;;;;;;;;4.50;37.20;;;;;;4110220;28;20012;-48
2021/12/02 08:18:22;;;;;;;;;;;4.50;36.80;;;;;;4113732;28;20063;-52
2021/12/02 08:20:26;;;;;;;;;;;4.50;37.20;;;;;;4111860;28;19963;-50
2021/12/02 08:22:27;;;;;;;;;;;4.40;37.70;;;;;;4095705;28;19950;-48
2021/12/02 08:24:29;;;;;;;;;;;4.40;37.40;;;;;;4113390;28;19949;-48
2021/12/02 08:26:31;;;;;;;;;;;4.40;36.70;;;;;;4110505;28;19953;-49
2021/12/02 08:28:33;;;;;;;;;;;4.40;35.50;;;;;;4108405;28;20035;-49
2021/12/02 08:30:37;;;;;;;;;;;4.50;34.50;;;;;;4112368;28;19952;-53
2021/12/02 08:32:42;;;;;;;;;;;4.50;33.70;;;;;;4113110;28;19976;-48
2021/12/02 08:34:44;;;;;;;;;;;4.40;34.00;;;;;;4109251;28;19949;-52
2021/12/02 08:36:53;;;;;;;;;;;4.40;33.40;;;;;;4112586;28;19971;-49
2021/12/02 08:38:57;;;;;;;;;;;4.40;33.30;;;;;;4096782;28;20383;-48
2021/12/02 08:41:07;;;;;;;;;;;4.40;32.30;;;;;;4114610;28;19953;-48
2021/12/02 08:43:10;;;;;;;;;;;4.40;33.00;;;;;;4114517;28;19952;-48
2021/12/02 08:45:12;;;;;;;;;;;4.50;34.10;;;;;;4096450;28;19946;-50
2021/12/02 08:47:15;;;;;;;;;;;4.40;32.20;;;;;;4111830;28;19958;-49
2021/12/02 08:49:18;;;;;;;;;;;4.40;33.70;;;;;;4113446;28;20451;-48
2021/12/02 08:51:20;;;;;;;;;;;4.40;31.40;;;;;;4097712;28;20009;-48
2021/12/02 08:53:22;;;;;;;;;;;4.40;31.00;;;;;;4113606;28;20288;-47
2021/12/02 08:55:31;;;;;;;;;;;4.40;32.00;;;;;;4096391;28;19996;-48
2021/12/02 08:57:35;;;;;;;;;;;4.40;32.50;;;;;;4096311;28;19972;-48
2021/12/02 08:59:40;;;;;;;;;;;4.50;30.40;;;;;;4111114;28;20390;-51
2021/12/02 09:01:42;;;;;;;;;;;4.40;30.90;;;;;;4096643;28;20002;-48
2021/12/02 09:03:47;;;;;;;;;;;4.40;26.60;;;;;;4111621;28;20413;-47
2021/12/02 09:05:56;;;;;;;;;;;4.40;26.20;;;;;;4115709;28;19948;-49
2021/12/02 09:07:58;;;;;;;;;;;4.40;27.40;;;;;;4098146;28;19983;-48
2021/12/02 09:10:00;;;;;;;;;;;4.40;27.90;;;;;;4097300;28;20503;-47
2021/12/02 09:12:03;;;;;;;;;;;4.40;27.10;;;;;;4097688;28;19949;-48
2021/12/02 09:14:05;;;;;;;;;;;4.50;26.30;;;;;;4113271;28;19950;-48
2021/12/02 09:16:07;;;;;;;;;;;4.50;26.90;;;;;;4113381;28;19950;-48
2021/12/02 09:18:09;;;;;;;;;;;4.50;26.30;;;;;;4112215;28;19962;-47
2021/12/02 09:20:12;;;;;;;;;;;4.50;26.50;;;;;;4112840;28;19954;-48
2021/12/02 09:22:14;;;;;;;;;;;4.50;27.00;;;;;;4097299;28;19953;-47
2021/12/02 09:24:22;;;;;;;;;;;4.50;27.30;;;;;;4110255;28;19972;-47
2021/12/02 09:26:23;;;;;;;;;;;4.60;27.80;;;;;;4110232;28;19944;-53
2021/12/02 09:28:25;;;;;;;;;;;4.50;27.30;;;;;;4114962;28;19953;-47
2021/12/02 09:30:28;;;;;;;;;;;4.50;26.90;;;;;;4113110;28;19965;-47
2021/12/02 09:32:30;;;;;;;;;;;4.50;26.30;;;;;;4111620;28;19959;-47
2021/12/02 09:34:32;;;;;;;;;;;4.50;26.10;;;;;;4092628;28;20472;-50
2021/12/02 09:36:34;;;;;;;;;;;4.50;24.90;;;;;;4110542;28;20281;-50
2021/12/02 09:38:35;;;;;;;;;;;4.50;25.20;;;;;;4096889;28;20410;-47
2021/12/02 09:40:39;;;;;;;;;;;4.50;24.80;;;;;;4112628;28;20401;-47
2021/12/02 09:42:42;;;;;;;;;;;4.50;25.70;;;;;;4093881;28;19957;-51
2021/12/02 09:44:48;;;;;;;;;;;4.50;25.80;;;;;;4111298;28;19955;-48
2021/12/02 09:46:51;;;;;;;;;;;4.60;26.10;;;;;;4108901;28;19961;-48
2021/12/02 09:48:54;;;;;;;;;;;4.60;26.80;;;;;;4110720;28;19950;-49
2021/12/02 09:53:31;;;;;;;;;;;4.60;26.50;;;;;;4108695;28;19952;-47
2021/12/02 09:55:42;;;;;;;;;;;4.70;25.30;;;;;;4104919;28;19980;-47
2021/12/02 09:57:48;;;;;;;;;;;4.70;24.40;;;;;;4101682;28;20016;-48
2021/12/02 09:59:52;;;;;;;;;;;4.70;24.40;;;;;;4092532;28;20625;-48
2021/12/02 10:01:59;;;;;;;;;;;4.80;25.00;;;;;;4094051;28;19952;-47
2021/12/02 10:04:03;;;;;;;;;;;4.90;27.50;;;;;;4112862;28;20537;-48
2021/12/02 10:06:07;;;;;;;;;;;5.30;32.20;;;;;;4095832;28;19953;-48
2021/12/02 10:08:16;;;;;;;;;;;5.50;21.40;;;;;;4107533;28;19956;-47
2021/12/02 10:13:24;;;;;;;;;;;6.20;9.40;;;;;;4070110;28;19949;-48
2021/12/02 10:15:27;;;;;;;;;;;6.90;1.00;;;;;;4110973;28;19950;-49
2021/12/02 10:17:36;;;;;;;;;;;7.70;1.00;;;;;;4110266;28;19963;-49
2021/12/02 10:19:57;;;;;;;;;;;8.40;1.00;;;;;;4110886;28;20519;-47
2021/12/02 10:22:08;;;;;;;;;;;8.80;1.00;;;;;;4089186;28;19943;-47
2021/12/02 10:24:15;;;;;;;;;;;8.60;1.00;;;;;;4111679;28;19942;-48
2021/12/02 10:26:18;;;;;;;;;;;8.20;1.00;;;;;;4094736;28;20061;-48
2021/12/02 10:28:21;;;;;;;;;;;7.90;1.00;;;;;;4094222;28;19956;-50
2021/12/02 10:30:24;;;;;;;;;;;7.50;1.00;;;;;;4112296;28;19942;-52
2021/12/02 10:32:30;;;;;;;;;;;7.20;1.00;;;;;;4092325;28;19953;-52
2021/12/02 10:34:44;;;;;;;;;;;7.00;1.00;;;;;;4089632;28;19952;-52
2021/12/02 10:36:49;;;;;;;;;;;6.80;1.00;;;;;;4091945;28;19958;-50
2021/12/02 10:38:59;;;;;;;;;;;6.70;1.00;;;;;;4107219;28;19978;-49
2021/12/02 10:41:24;;;;;;;;;;;6.70;1.00;;;;;;4106660;28;19998;-48
2021/12/02 10:43:26;;;;;;;;;;;6.60;1.00;;;;;;4108285;28;19950;-52
2021/12/02 10:45:32;;;;;;;;;;;6.70;1.00;;;;;;4110546;28;19947;-49
2021/12/02 10:47:34;;;;;;;;;;;6.70;1.00;;;;;;4113149;28;20065;-48
2021/12/02 10:49:39;;;;;;;;;;;6.70;1.00;;;;;;4113068;28;20411;-48
2021/12/02 10:51:46;;;;;;;;;;;6.70;1.00;;;;;;4110050;28;19951;-49
2021/12/02 10:54:01;;;;;;;;;;;6.60;1.00;;;;;;4095450;28;20437;-50
2021/12/02 10:56:03;;;;;;;;;;;6.50;1.00;;;;;;4111375;28;19952;-51
2021/12/02 10:58:05;;;;;;;;;;;6.30;1.00;;;;;;4096637;28;20118;-49
2021/12/02 11:00:08;;;;;;;;;;;6.20;1.00;;;;;;4095924;28;19946;-50
2021/12/02 11:02:24;;;;;;;;;;;6.00;1.00;;;;;;4095823;28;19954;-50
2021/12/02 11:04:33;;;;;;;;;;;5.90;1.00;;;;;;4095934;28;19947;-50
2021/12/02 11:06:41;;;;;;;;;;;5.80;1.00;;;;;;4107898;28;20390;-51
2021/12/02 11:08:49;;;;;;;;;;;5.70;1.00;;;;;;4107338;28;20371;-47
2021/12/02 11:10:51;;;;;;;;;;;5.50;1.00;;;;;;4111600;28;19954;-49
2021/12/02 11:12:54;;;;;;;;;;;5.50;1.00;;;;;;4111714;28;20404;-49
2021/12/02 11:14:59;;;;;;;;;;;5.40;1.00;;;;;;4108429;28;20316;-50
2021/12/02 11:17:14;;;;;;;;;;;5.30;1.00;;;;;;4110861;28;19962;-47
2021/12/02 11:19:20;;;;;;;;;;;5.30;1.00;;;;;;4114122;28;19939;-49
2021/12/02 11:21:23;;;;;;;;;;;5.30;1.00;;;;;;4116653;28;19947;-47
2021/12/02 11:23:32;;;;;;;;;;;5.30;1.00;;;;;;4111993;28;19975;-48
2021/12/02 11:25:38;;;;;;;;;;;5.20;1.00;;;;;;4116145;28;19989;-47
2021/12/02 11:27:42;;;;;;;;;;;5.20;1.00;;;;;;4112392;28;20035;-47
2021/12/02 11:29:45;;;;;;;;;;;5.10;1.00;;;;;;4114056;28;20426;-47
2021/12/02 11:31:47;;;;;;;;;;;5.00;1.00;;;;;;4098158;28;19945;-48
2021/12/02 11:34:09;;;;;;;;;;;4.90;1.00;;;;;;4112375;28;20374;-48
2021/12/02 11:36:25;;;;;;;;;;;4.90;1.00;;;;;;4113501;28;19965;-47
2021/12/02 11:38:28;;;;;;;;;;;4.90;1.00;;;;;;4114350;28;20045;-49
2021/12/02 11:40:38;;;;;;;;;;;4.90;1.00;;;;;;4098125;28;19947;-47
2021/12/02 11:42:40;;;;;;;;;;;4.90;1.00;;;;;;4099216;28;19944;-45
2021/12/02 11:44:49;;;;;;;;;;;4.90;1.00;;;;;;4113233;28;19986;-48
2021/12/02 11:46:51;;;;;;;;;;;4.90;1.00;;;;;;4111820;28;19988;-47
2021/12/02 11:48:53;;;;;;;;;;;5.00;1.00;;;;;;4112603;28;20472;-47
2021/12/02 11:50:56;;;;;;;;;;;5.00;1.00;;;;;;4112465;28;19947;-48
2021/12/02 11:52:59;;;;;;;;;;;5.00;1.00;;;;;;4098526;28;19997;-47
2021/12/02 11:55:02;;;;;;;;;;;4.90;1.00;;;;;;4112568;28;20031;-48
2021/12/02 11:57:03;;;;;;;;;;;4.90;1.00;;;;;;4110385;28;19975;-48
2021/12/02 11:59:05;;;;;;;;;;;4.90;1.00;;;;;;4111470;28;20397;-47
2021/12/02 12:01:13;;;;;;;;;;;4.90;1.00;;;;;;4105477;28;19996;-48
2021/12/02 12:03:20;;;;;;;;;;;4.90;1.00;;;;;;4112589;28;19984;-46
2021/12/02 12:05:24;;;;;;;;;;;4.90;1.00;;;;;;4117806;28;20038;-47
2021/12/02 12:07:37;;;;;;;;;;;4.90;1.00;;;;;;4113723;28;19958;-47
2021/12/02 12:09:39;;;;;;;;;;;4.90;1.00;;;;;;4099480;28;19946;-46
2021/12/02 12:11:45;;;;;;;;;;;4.80;1.00;;;;;;4113345;28;19947;-46
2021/12/02 12:13:50;;;;;;;;;;;4.80;1.00;;;;;;4100396;28;19998;-46
2021/12/02 12:16:02;;;;;;;;;;;4.90;1.00;;;;;;4100018;28;19943;-48
2021/12/02 12:18:05;;;;;;;;;;;4.90;1.00;;;;;;4096359;28;19965;-47
2021/12/02 12:20:11;;;;;;;;;;;4.90;1.00;;;;;;4096873;28;19948;-47
2021/12/02 12:22:29;;;;;;;;;;;4.90;1.00;;;;;;4097635;28;20035;-49
2021/12/02 12:24:45;;;;;;;;;;;4.90;1.00;;;;;;4116823;28;19953;-48
2021/12/02 12:26:51;;;;;;;;;;;4.90;1.00;;;;;;4093282;28;20322;-47
2021/12/02 12:29:15;;;;;;;;;;;4.90;1.00;;;;;;4098114;28;20010;-47
2021/12/02 12:31:17;;;;;;;;;;;5.00;1.00;;;;;;4088715;28;20328;-47
2021/12/02 12:33:40;;;;;;;;;;;5.00;1.00;;;;;;4095821;28;19953;-49
2021/12/02 12:38:19;;;;;;;;;;;5.10;1.00;;;;;;4116595;28;20538;-47
2021/12/02 12:40:25;;;;;;;;;;;5.10;1.00;;;;;;4095871;28;20394;-47